sensor_id;sensor_type;location;lat;lon;timestamp;P1;durP1;ratioP1;P2;durP2;ratioP2
23310;SDS011;11828;51.508;18.118;2023-07-30T00:02:04;46.47;;;42.33;;
23310;SDS011;11828;51.508;18.118;2023-07-30T00:04:31;55.33;;;45.13;;
23310;SDS011;11828;51.508;18.118;2023-07-30T00:06:57;111.95;;;57.53;;
23310;SDS011;11828;51.508;18.118;2023-07-30T00:09:23;140.65;;;66.07;;
23310;SDS011;11828;51.508;18.118;2023-07-30T00:11:49;71.68;;;56.10;;
23310;SDS011;11828;51.508;18.118;2023-07-30T00:14:16;174.38;;;74.72;;
23310;SDS011;11828;51.508;18.118;2023-07-30T00:16:43;155.18;;;72.05;;
23310;SDS011;11828;51.508;18.118;2023-07-30T00:19:10;109.28;;;67.00;;
23310;SDS011;11828;51.508;18.118;2023-07-30T00:21:36;133.13;;;69.72;;
23310;SDS011;11828;51.508;18.118;2023-07-30T00:24:02;144.90;;;73.50;;
23310;SDS011;11828;51.508;18.118;2023-07-30T00:26:28;147.27;;;72.43;;
23310;SDS011;11828;51.508;18.118;2023-07-30T00:28:55;165.32;;;75.82;;
23310;SDS011;11828;51.508;18.118;2023-07-30T00:31:21;82.88;;;60.40;;
23310;SDS011;11828;51.508;18.118;2023-07-30T00:33:48;46.50;;;41.97;;
23310;SDS011;11828;51.508;18.118;2023-07-30T00:36:14;199.68;;;74.05;;
23310;SDS011;11828;51.508;18.118;2023-07-30T00:38:40;175.55;;;70.63;;
23310;SDS011;11828;51.508;18.118;2023-07-30T00:41:06;157.13;;;69.07;;
23310;SDS011;11828;51.508;18.118;2023-07-30T00:43:33;183.20;;;72.35;;
23310;SDS011;11828;51.508;18.118;2023-07-30T00:45:59;171.73;;;72.65;;
23310;SDS011;11828;51.508;18.118;2023-07-30T00:48:25;160.73;;;71.80;;
23310;SDS011;11828;51.508;18.118;2023-07-30T00:50:51;178.95;;;71.85;;
23310;SDS011;11828;51.508;18.118;2023-07-30T00:53:19;224.30;;;80.07;;
23310;SDS011;11828;51.508;18.118;2023-07-30T00:55:47;194.07;;;77.55;;
23310;SDS011;11828;51.508;18.118;2023-07-30T00:58:14;178.32;;;78.43;;
23310;SDS011;11828;51.508;18.118;2023-07-30T01:00:41;184.73;;;79.47;;
23310;SDS011;11828;51.508;18.118;2023-07-30T01:03:08;181.73;;;78.97;;
23310;SDS011;11828;51.508;18.118;2023-07-30T01:05:34;178.85;;;78.25;;
23310;SDS011;11828;51.508;18.118;2023-07-30T01:08:00;167.02;;;77.40;;
23310;SDS011;11828;51.508;18.118;2023-07-30T01:10:26;182.98;;;78.25;;
23310;SDS011;11828;51.508;18.118;2023-07-30T01:12:56;142.20;;;74.40;;
23310;SDS011;11828;51.508;18.118;2023-07-30T01:15:23;193.32;;;78.53;;
23310;SDS011;11828;51.508;18.118;2023-07-30T01:17:49;165.48;;;77.93;;
23310;SDS011;11828;51.508;18.118;2023-07-30T01:20:15;197.13;;;81.25;;
23310;SDS011;11828;51.508;18.118;2023-07-30T01:22:42;188.80;;;78.03;;
23310;SDS011;11828;51.508;18.118;2023-07-30T01:25:08;186.90;;;77.80;;
23310;SDS011;11828;51.508;18.118;2023-07-30T01:27:36;178.32;;;79.00;;
23310;SDS011;11828;51.508;18.118;2023-07-30T01:30:19;163.77;;;77.47;;
23310;SDS011;11828;51.508;18.118;2023-07-30T01:32:52;182.23;;;77.60;;
23310;SDS011;11828;51.508;18.118;2023-07-30T01:35:20;169.70;;;78.18;;
23310;SDS011;11828;51.508;18.118;2023-07-30T01:37:48;214.07;;;80.55;;
23310;SDS011;11828;51.508;18.118;2023-07-30T01:40:15;109.22;;;68.00;;
23310;SDS011;11828;51.508;18.118;2023-07-30T01:42:42;104.15;;;65.10;;
23310;SDS011;11828;51.508;18.118;2023-07-30T01:45:08;129.43;;;65.18;;
23310;SDS011;11828;51.508;18.118;2023-07-30T01:47:35;204.77;;;77.32;;
23310;SDS011;11828;51.508;18.118;2023-07-30T01:50:01;183.88;;;77.35;;
23310;SDS011;11828;51.508;18.118;2023-07-30T01:52:28;144.05;;;72.10;;
23310;SDS011;11828;51.508;18.118;2023-07-30T01:54:54;161.07;;;77.38;;
23310;SDS011;11828;51.508;18.118;2023-07-30T01:57:21;186.35;;;77.55;;
23310;SDS011;11828;51.508;18.118;2023-07-30T01:59:48;126.93;;;71.32;;
23310;SDS011;11828;51.508;18.118;2023-07-30T02:02:14;122.15;;;70.18;;
23310;SDS011;11828;51.508;18.118;2023-07-30T02:04:40;140.73;;;71.28;;
23310;SDS011;11828;51.508;18.118;2023-07-30T02:07:07;206.25;;;77.20;;
23310;SDS011;11828;51.508;18.118;2023-07-30T02:09:33;102.72;;;64.63;;
23310;SDS011;11828;51.508;18.118;2023-07-30T02:11:59;68.95;;;51.85;;
23310;SDS011;11828;51.508;18.118;2023-07-30T02:14:26;54.35;;;41.65;;
23310;SDS011;11828;51.508;18.118;2023-07-30T02:16:52;37.30;;;33.67;;
23310;SDS011;11828;51.508;18.118;2023-07-30T02:19:18;29.33;;;26.52;;
23310;SDS011;11828;51.508;18.118;2023-07-30T02:21:44;50.35;;;36.72;;
23310;SDS011;11828;51.508;18.118;2023-07-30T02:24:10;58.60;;;51.03;;
23310;SDS011;11828;51.508;18.118;2023-07-30T02:26:37;56.50;;;47.15;;
23310;SDS011;11828;51.508;18.118;2023-07-30T02:29:04;124.82;;;68.97;;
23310;SDS011;11828;51.508;18.118;2023-07-30T02:31:31;159.80;;;71.30;;
23310;SDS011;11828;51.508;18.118;2023-07-30T02:33:57;231.35;;;80.30;;
23310;SDS011;11828;51.508;18.118;2023-07-30T02:36:23;151.77;;;76.18;;
23310;SDS011;11828;51.508;18.118;2023-07-30T02:38:50;197.20;;;79.53;;
23310;SDS011;11828;51.508;18.118;2023-07-30T02:41:16;169.07;;;74.68;;
23310;SDS011;11828;51.508;18.118;2023-07-30T02:43:42;204.35;;;79.32;;
23310;SDS011;11828;51.508;18.118;2023-07-30T02:46:09;143.32;;;73.82;;
23310;SDS011;11828;51.508;18.118;2023-07-30T02:48:35;146.65;;;74.50;;
23310;SDS011;11828;51.508;18.118;2023-07-30T02:51:02;189.70;;;76.93;;
23310;SDS011;11828;51.508;18.118;2023-07-30T02:53:28;131.63;;;68.05;;
23310;SDS011;11828;51.508;18.118;2023-07-30T02:55:55;211.63;;;75.28;;
23310;SDS011;11828;51.508;18.118;2023-07-30T02:58:21;193.55;;;76.80;;
23310;SDS011;11828;51.508;18.118;2023-07-30T03:00:47;174.40;;;76.63;;
23310;SDS011;11828;51.508;18.118;2023-07-30T03:03:13;140.27;;;70.63;;
23310;SDS011;11828;51.508;18.118;2023-07-30T03:05:43;245.93;;;83.40;;
23310;SDS011;11828;51.508;18.118;2023-07-30T03:08:09;223.57;;;80.95;;
23310;SDS011;11828;51.508;18.118;2023-07-30T03:10:36;190.98;;;78.57;;
23310;SDS011;11828;51.508;18.118;2023-07-30T03:13:02;166.00;;;73.65;;
23310;SDS011;11828;51.508;18.118;2023-07-30T03:15:28;173.60;;;74.20;;
23310;SDS011;11828;51.508;18.118;2023-07-30T03:17:54;221.82;;;79.97;;
23310;SDS011;11828;51.508;18.118;2023-07-30T03:20:20;228.40;;;80.88;;
23310;SDS011;11828;51.508;18.118;2023-07-30T03:22:46;168.82;;;74.57;;
23310;SDS011;11828;51.508;18.118;2023-07-30T03:25:13;195.07;;;78.28;;
23310;SDS011;11828;51.508;18.118;2023-07-30T03:27:39;219.60;;;76.57;;
23310;SDS011;11828;51.508;18.118;2023-07-30T03:30:05;235.55;;;82.80;;
23310;SDS011;11828;51.508;18.118;2023-07-30T03:32:32;242.95;;;80.53;;
23310;SDS011;11828;51.508;18.118;2023-07-30T03:34:58;240.63;;;80.65;;
23310;SDS011;11828;51.508;18.118;2023-07-30T03:37:24;215.68;;;76.85;;
23310;SDS011;11828;51.508;18.118;2023-07-30T03:39:50;138.77;;;68.03;;
23310;SDS011;11828;51.508;18.118;2023-07-30T03:42:17;225.05;;;79.90;;
23310;SDS011;11828;51.508;18.118;2023-07-30T03:44:43;81.07;;;57.38;;
23310;SDS011;11828;51.508;18.118;2023-07-30T03:47:09;135.45;;;49.75;;
23310;SDS011;11828;51.508;18.118;2023-07-30T03:49:35;65.57;;;52.92;;
23310;SDS011;11828;51.508;18.118;2023-07-30T03:52:06;21.88;;;19.70;;
23310;SDS011;11828;51.508;18.118;2023-07-30T03:54:32;12.10;;;5.72;;
23310;SDS011;11828;51.508;18.118;2023-07-30T03:56:59;11.80;;;4.57;;
23310;SDS011;11828;51.508;18.118;2023-07-30T03:59:26;12.52;;;4.05;;
23310;SDS011;11828;51.508;18.118;2023-07-30T04:01:53;10.48;;;3.65;;
23310;SDS011;11828;51.508;18.118;2023-07-30T04:04:20;13.77;;;3.60;;
23310;SDS011;11828;51.508;18.118;2023-07-30T04:06:46;9.38;;;3.00;;
23310;SDS011;11828;51.508;18.118;2023-07-30T04:09:12;13.50;;;3.47;;
23310;SDS011;11828;51.508;18.118;2023-07-30T04:11:39;8.77;;;2.95;;
23310;SDS011;11828;51.508;18.118;2023-07-30T04:14:05;91.43;;;34.15;;
23310;SDS011;11828;51.508;18.118;2023-07-30T04:16:34;228.23;;;82.47;;
23310;SDS011;11828;51.508;18.118;2023-07-30T04:19:00;110.97;;;52.45;;
23310;SDS011;11828;51.508;18.118;2023-07-30T04:21:26;222.07;;;79.07;;
23310;SDS011;11828;51.508;18.118;2023-07-30T04:23:53;187.77;;;72.15;;
23310;SDS011;11828;51.508;18.118;2023-07-30T04:26:19;207.77;;;73.57;;
23310;SDS011;11828;51.508;18.118;2023-07-30T04:28:45;212.07;;;76.18;;
23310;SDS011;11828;51.508;18.118;2023-07-30T04:31:11;237.15;;;81.97;;
23310;SDS011;11828;51.508;18.118;2023-07-30T04:33:37;225.32;;;77.07;;
23310;SDS011;11828;51.508;18.118;2023-07-30T04:36:04;245.50;;;80.68;;
23310;SDS011;11828;51.508;18.118;2023-07-30T04:38:30;241.82;;;80.47;;
23310;SDS011;11828;51.508;18.118;2023-07-30T04:40:59;244.35;;;81.57;;
23310;SDS011;11828;51.508;18.118;2023-07-30T04:43:26;254.20;;;82.20;;
23310;SDS011;11828;51.508;18.118;2023-07-30T04:45:51;252.82;;;83.13;;
23310;SDS011;11828;51.508;18.118;2023-07-30T04:48:18;239.15;;;79.95;;
23310;SDS011;11828;51.508;18.118;2023-07-30T04:50:44;248.10;;;82.05;;
23310;SDS011;11828;51.508;18.118;2023-07-30T04:53:10;254.88;;;83.50;;
23310;SDS011;11828;51.508;18.118;2023-07-30T04:55:36;251.88;;;82.78;;
23310;SDS011;11828;51.508;18.118;2023-07-30T04:58:03;254.02;;;83.65;;
23310;SDS011;11828;51.508;18.118;2023-07-30T05:00:29;245.07;;;82.00;;
23310;SDS011;11828;51.508;18.118;2023-07-30T05:02:55;261.88;;;83.28;;
23310;SDS011;11828;51.508;18.118;2023-07-30T05:05:21;247.30;;;80.97;;
23310;SDS011;11828;51.508;18.118;2023-07-30T05:07:47;244.20;;;82.15;;
23310;SDS011;11828;51.508;18.118;2023-07-30T05:10:13;252.48;;;82.97;;
23310;SDS011;11828;51.508;18.118;2023-07-30T05:12:41;252.52;;;83.63;;
23310;SDS011;11828;51.508;18.118;2023-07-30T05:15:08;251.18;;;83.82;;
23310;SDS011;11828;51.508;18.118;2023-07-30T05:17:34;239.00;;;82.10;;
23310;SDS011;11828;51.508;18.118;2023-07-30T05:20:00;218.35;;;77.93;;
23310;SDS011;11828;51.508;18.118;2023-07-30T05:22:26;235.80;;;81.60;;
23310;SDS011;11828;51.508;18.118;2023-07-30T05:24:52;241.30;;;82.20;;
23310;SDS011;11828;51.508;18.118;2023-07-30T05:27:18;242.40;;;82.72;;
23310;SDS011;11828;51.508;18.118;2023-07-30T05:29:44;238.60;;;82.05;;
23310;SDS011;11828;51.508;18.118;2023-07-30T05:32:11;205.70;;;78.40;;
23310;SDS011;11828;51.508;18.118;2023-07-30T05:34:38;244.55;;;84.85;;
23310;SDS011;11828;51.508;18.118;2023-07-30T05:37:04;249.55;;;84.50;;
23310;SDS011;11828;51.508;18.118;2023-07-30T05:39:30;238.88;;;82.50;;
23310;SDS011;11828;51.508;18.118;2023-07-30T05:41:56;246.55;;;84.15;;
23310;SDS011;11828;51.508;18.118;2023-07-30T05:44:23;233.65;;;82.55;;
23310;SDS011;11828;51.508;18.118;2023-07-30T05:46:49;241.48;;;84.28;;
23310;SDS011;11828;51.508;18.118;2023-07-30T05:49:15;218.73;;;81.45;;
23310;SDS011;11828;51.508;18.118;2023-07-30T05:51:41;241.98;;;85.57;;
23310;SDS011;11828;51.508;18.118;2023-07-30T05:54:07;236.60;;;86.45;;
23310;SDS011;11828;51.508;18.118;2023-07-30T05:56:33;246.60;;;84.57;;
23310;SDS011;11828;51.508;18.118;2023-07-30T05:59:00;238.02;;;82.93;;
23310;SDS011;11828;51.508;18.118;2023-07-30T06:01:26;193.88;;;78.90;;
23310;SDS011;11828;51.508;18.118;2023-07-30T06:03:52;248.38;;;84.07;;
23310;SDS011;11828;51.508;18.118;2023-07-30T06:06:18;256.63;;;86.18;;
23310;SDS011;11828;51.508;18.118;2023-07-30T06:08:52;255.43;;;85.35;;
23310;SDS011;11828;51.508;18.118;2023-07-30T06:11:19;254.07;;;86.00;;
23310;SDS011;11828;51.508;18.118;2023-07-30T06:13:46;244.05;;;84.50;;
23310;SDS011;11828;51.508;18.118;2023-07-30T06:16:12;228.43;;;81.40;;
23310;SDS011;11828;51.508;18.118;2023-07-30T06:18:39;232.43;;;82.57;;
23310;SDS011;11828;51.508;18.118;2023-07-30T06:21:05;198.93;;;81.60;;
23310;SDS011;11828;51.508;18.118;2023-07-30T06:23:31;215.60;;;81.60;;
23310;SDS011;11828;51.508;18.118;2023-07-30T06:25:57;223.18;;;84.85;;
23310;SDS011;11828;51.508;18.118;2023-07-30T06:28:24;77.85;;;41.70;;
23310;SDS011;11828;51.508;18.118;2023-07-30T06:30:50;214.48;;;83.03;;
23310;SDS011;11828;51.508;18.118;2023-07-30T06:33:16;172.07;;;69.97;;
23310;SDS011;11828;51.508;18.118;2023-07-30T06:35:42;145.98;;;66.53;;
23310;SDS011;11828;51.508;18.118;2023-07-30T06:38:09;210.95;;;84.32;;
23310;SDS011;11828;51.508;18.118;2023-07-30T06:40:35;112.70;;;57.15;;
23310;SDS011;11828;51.508;18.118;2023-07-30T06:43:01;29.02;;;8.00;;
23310;SDS011;11828;51.508;18.118;2023-07-30T06:45:27;142.48;;;71.93;;
23310;SDS011;11828;51.508;18.118;2023-07-30T06:47:54;157.48;;;74.63;;
23310;SDS011;11828;51.508;18.118;2023-07-30T06:50:20;169.25;;;79.82;;
23310;SDS011;11828;51.508;18.118;2023-07-30T06:52:46;117.43;;;58.25;;
23310;SDS011;11828;51.508;18.118;2023-07-30T06:55:12;117.15;;;60.50;;
23310;SDS011;11828;51.508;18.118;2023-07-30T06:57:38;75.93;;;41.20;;
23310;SDS011;11828;51.508;18.118;2023-07-30T07:00:04;122.90;;;72.18;;
23310;SDS011;11828;51.508;18.118;2023-07-30T07:02:31;20.00;;;3.35;;
23310;SDS011;11828;51.508;18.118;2023-07-30T07:04:58;30.45;;;18.15;;
23310;SDS011;11828;51.508;18.118;2023-07-30T07:07:24;20.73;;;9.00;;
23310;SDS011;11828;51.508;18.118;2023-07-30T07:09:50;17.85;;;4.50;;
23310;SDS011;11828;51.508;18.118;2023-07-30T07:12:17;14.02;;;3.05;;
23310;SDS011;11828;51.508;18.118;2023-07-30T07:14:43;17.45;;;3.45;;
23310;SDS011;11828;51.508;18.118;2023-07-30T07:17:09;16.58;;;3.40;;
23310;SDS011;11828;51.508;18.118;2023-07-30T07:19:35;9.85;;;3.53;;
23310;SDS011;11828;51.508;18.118;2023-07-30T07:22:05;8.52;;;2.38;;
23310;SDS011;11828;51.508;18.118;2023-07-30T07:24:31;7.25;;;2.63;;
23310;SDS011;11828;51.508;18.118;2023-07-30T07:26:58;9.18;;;2.90;;
23310;SDS011;11828;51.508;18.118;2023-07-30T07:29:24;7.35;;;2.33;;
23310;SDS011;11828;51.508;18.118;2023-07-30T07:31:50;8.18;;;2.33;;
23310;SDS011;11828;51.508;18.118;2023-07-30T07:34:16;6.88;;;2.20;;
23310;SDS011;11828;51.508;18.118;2023-07-30T07:36:43;8.40;;;2.33;;
23310;SDS011;11828;51.508;18.118;2023-07-30T07:39:09;6.53;;;2.15;;
23310;SDS011;11828;51.508;18.118;2023-07-30T07:41:37;4.53;;;2.00;;
23310;SDS011;11828;51.508;18.118;2023-07-30T07:44:03;7.28;;;2.13;;
23310;SDS011;11828;51.508;18.118;2023-07-30T07:46:29;3.75;;;2.00;;
23310;SDS011;11828;51.508;18.118;2023-07-30T07:48:55;8.40;;;2.03;;
23310;SDS011;11828;51.508;18.118;2023-07-30T07:51:23;4.47;;;1.90;;
23310;SDS011;11828;51.508;18.118;2023-07-30T07:54:08;4.15;;;1.85;;
23310;SDS011;11828;51.508;18.118;2023-07-30T07:56:34;3.20;;;1.77;;
23310;SDS011;11828;51.508;18.118;2023-07-30T07:59:00;3.55;;;1.52;;
23310;SDS011;11828;51.508;18.118;2023-07-30T08:01:26;3.25;;;1.90;;
23310;SDS011;11828;51.508;18.118;2023-07-30T08:03:52;2.75;;;1.60;;
23310;SDS011;11828;51.508;18.118;2023-07-30T08:06:18;4.20;;;1.80;;
23310;SDS011;11828;51.508;18.118;2023-07-30T08:08:44;3.85;;;1.80;;
23310;SDS011;11828;51.508;18.118;2023-07-30T08:11:11;4.40;;;2.03;;
23310;SDS011;11828;51.508;18.118;2023-07-30T08:13:37;4.43;;;2.05;;
23310;SDS011;11828;51.508;18.118;2023-07-30T08:16:04;3.92;;;1.90;;
23310;SDS011;11828;51.508;18.118;2023-07-30T08:18:30;8.05;;;2.50;;
23310;SDS011;11828;51.508;18.118;2023-07-30T08:20:57;4.15;;;2.05;;
23310;SDS011;11828;51.508;18.118;2023-07-30T08:23:23;4.70;;;1.92;;
23310;SDS011;11828;51.508;18.118;2023-07-30T08:25:49;4.00;;;2.10;;
23310;SDS011;11828;51.508;18.118;2023-07-30T08:28:15;4.28;;;2.05;;
23310;SDS011;11828;51.508;18.118;2023-07-30T08:30:41;4.00;;;1.75;;
23310;SDS011;11828;51.508;18.118;2023-07-30T08:33:07;5.20;;;2.20;;
23310;SDS011;11828;51.508;18.118;2023-07-30T08:35:34;6.03;;;2.20;;
23310;SDS011;11828;51.508;18.118;2023-07-30T08:38:00;8.38;;;2.45;;
23310;SDS011;11828;51.508;18.118;2023-07-30T08:40:27;13.90;;;3.03;;
23310;SDS011;11828;51.508;18.118;2023-07-30T08:42:53;8.15;;;2.35;;
23310;SDS011;11828;51.508;18.118;2023-07-30T08:45:20;6.75;;;2.38;;
23310;SDS011;11828;51.508;18.118;2023-07-30T08:47:46;7.55;;;2.47;;
23310;SDS011;11828;51.508;18.118;2023-07-30T08:50:13;7.45;;;2.28;;
23310;SDS011;11828;51.508;18.118;2023-07-30T08:52:39;2.88;;;1.55;;
23310;SDS011;11828;51.508;18.118;2023-07-30T08:55:07;5.97;;;2.20;;
23310;SDS011;11828;51.508;18.118;2023-07-30T08:57:35;5.47;;;1.95;;
23310;SDS011;11828;51.508;18.118;2023-07-30T09:00:04;11.20;;;2.85;;
23310;SDS011;11828;51.508;18.118;2023-07-30T09:02:34;4.57;;;1.80;;
23310;SDS011;11828;51.508;18.118;2023-07-30T09:05:07;4.72;;;1.98;;
23310;SDS011;11828;51.508;18.118;2023-07-30T09:07:33;6.10;;;2.05;;
23310;SDS011;11828;51.508;18.118;2023-07-30T09:09:59;5.65;;;1.98;;
23310;SDS011;11828;51.508;18.118;2023-07-30T09:12:29;6.00;;;1.88;;
23310;SDS011;11828;51.508;18.118;2023-07-30T09:14:57;9.90;;;2.40;;
23310;SDS011;11828;51.508;18.118;2023-07-30T09:17:24;12.35;;;2.63;;
23310;SDS011;11828;51.508;18.118;2023-07-30T09:19:51;4.32;;;1.70;;
23310;SDS011;11828;51.508;18.118;2023-07-30T09:22:28;12.10;;;2.70;;
23310;SDS011;11828;51.508;18.118;2023-07-30T09:25:02;7.45;;;2.20;;
23310;SDS011;11828;51.508;18.118;2023-07-30T09:27:28;7.80;;;2.95;;
23310;SDS011;11828;51.508;18.118;2023-07-30T09:29:55;5.15;;;2.30;;
23310;SDS011;11828;51.508;18.118;2023-07-30T09:32:26;6.55;;;2.03;;
23310;SDS011;11828;51.508;18.118;2023-07-30T09:34:54;10.55;;;2.45;;
23310;SDS011;11828;51.508;18.118;2023-07-30T09:37:32;4.95;;;2.20;;
23310;SDS011;11828;51.508;18.118;2023-07-30T09:40:04;4.45;;;1.73;;
23310;SDS011;11828;51.508;18.118;2023-07-30T09:42:32;5.47;;;1.88;;
23310;SDS011;11828;51.508;18.118;2023-07-30T09:45:00;3.70;;;1.40;;
23310;SDS011;11828;51.508;18.118;2023-07-30T09:47:27;6.00;;;2.03;;
23310;SDS011;11828;51.508;18.118;2023-07-30T09:49:56;5.82;;;1.90;;
23310;SDS011;11828;51.508;18.118;2023-07-30T09:52:22;5.13;;;1.90;;
23310;SDS011;11828;51.508;18.118;2023-07-30T09:54:51;3.65;;;1.65;;
23310;SDS011;11828;51.508;18.118;2023-07-30T09:57:17;2.17;;;1.30;;
23310;SDS011;11828;51.508;18.118;2023-07-30T09:59:44;2.88;;;1.38;;
23310;SDS011;11828;51.508;18.118;2023-07-30T10:02:10;3.33;;;1.40;;
23310;SDS011;11828;51.508;18.118;2023-07-30T10:04:39;4.22;;;1.40;;
23310;SDS011;11828;51.508;18.118;2023-07-30T10:07:10;5.53;;;1.33;;
23310;SDS011;11828;51.508;18.118;2023-07-30T10:09:42;3.78;;;1.40;;
23310;SDS011;11828;51.508;18.118;2023-07-30T10:12:12;4.93;;;1.50;;
23310;SDS011;11828;51.508;18.118;2023-07-30T10:14:42;4.47;;;1.67;;
23310;SDS011;11828;51.508;18.118;2023-07-30T10:17:09;5.07;;;1.65;;
23310;SDS011;11828;51.508;18.118;2023-07-30T10:19:37;4.35;;;1.65;;
23310;SDS011;11828;51.508;18.118;2023-07-30T10:24:39;6.03;;;1.90;;
23310;SDS011;11828;51.508;18.118;2023-07-30T10:27:06;4.57;;;1.70;;
23310;SDS011;11828;51.508;18.118;2023-07-30T10:29:35;4.68;;;1.60;;
23310;SDS011;11828;51.508;18.118;2023-07-30T10:32:03;4.88;;;1.70;;
23310;SDS011;11828;51.508;18.118;2023-07-30T10:34:46;5.28;;;1.80;;
23310;SDS011;11828;51.508;18.118;2023-07-30T10:37:20;4.07;;;1.65;;
23310;SDS011;11828;51.508;18.118;2023-07-30T10:39:49;5.05;;;1.85;;
23310;SDS011;11828;51.508;18.118;2023-07-30T10:42:15;4.85;;;1.80;;
23310;SDS011;11828;51.508;18.118;2023-07-30T10:44:44;5.65;;;1.92;;
23310;SDS011;11828;51.508;18.118;2023-07-30T10:47:10;6.70;;;2.08;;
23310;SDS011;11828;51.508;18.118;2023-07-30T10:49:40;14.60;;;2.67;;
23310;SDS011;11828;51.508;18.118;2023-07-30T10:52:09;6.75;;;1.77;;
23310;SDS011;11828;51.508;18.118;2023-07-30T10:54:36;5.15;;;1.70;;
23310;SDS011;11828;51.508;18.118;2023-07-30T10:57:02;5.35;;;1.63;;
23310;SDS011;11828;51.508;18.118;2023-07-30T10:59:35;5.47;;;1.60;;
23310;SDS011;11828;51.508;18.118;2023-07-30T11:02:02;4.40;;;1.40;;
23310;SDS011;11828;51.508;18.118;2023-07-30T11:04:33;8.50;;;1.85;;
23310;SDS011;11828;51.508;18.118;2023-07-30T11:06:59;5.82;;;1.70;;
23310;SDS011;11828;51.508;18.118;2023-07-30T11:09:27;8.40;;;1.95;;
23310;SDS011;11828;51.508;18.118;2023-07-30T11:11:54;5.20;;;1.63;;
23310;SDS011;11828;51.508;18.118;2023-07-30T11:14:22;6.45;;;1.67;;
23310;SDS011;11828;51.508;18.118;2023-07-30T11:16:53;10.68;;;2.20;;
23310;SDS011;11828;51.508;18.118;2023-07-30T11:19:25;6.38;;;1.52;;
23310;SDS011;11828;51.508;18.118;2023-07-30T11:21:52;4.10;;;1.40;;
23310;SDS011;11828;51.508;18.118;2023-07-30T11:24:22;4.93;;;1.50;;
23310;SDS011;11828;51.508;18.118;2023-07-30T11:26:59;5.15;;;1.50;;
23310;SDS011;11828;51.508;18.118;2023-07-30T11:29:27;5.80;;;1.60;;
23310;SDS011;11828;51.508;18.118;2023-07-30T11:31:56;4.40;;;1.60;;
23310;SDS011;11828;51.508;18.118;2023-07-30T11:34:25;3.78;;;1.35;;
23310;SDS011;11828;51.508;18.118;2023-07-30T11:36:53;5.18;;;1.42;;
23310;SDS011;11828;51.508;18.118;2023-07-30T11:39:20;8.95;;;1.77;;
23310;SDS011;11828;51.508;18.118;2023-07-30T11:41:48;5.65;;;1.45;;
23310;SDS011;11828;51.508;18.118;2023-07-30T11:44:34;3.47;;;1.30;;
23310;SDS011;11828;51.508;18.118;2023-07-30T11:47:03;7.32;;;1.48;;
23310;SDS011;11828;51.508;18.118;2023-07-30T11:49:30;4.82;;;1.50;;
23310;SDS011;11828;51.508;18.118;2023-07-30T11:52:09;5.40;;;1.55;;
23310;SDS011;11828;51.508;18.118;2023-07-30T11:54:36;10.40;;;2.00;;
23310;SDS011;11828;51.508;18.118;2023-07-30T11:57:02;6.97;;;1.60;;
23310;SDS011;11828;51.508;18.118;2023-07-30T11:59:30;6.35;;;1.52;;
23310;SDS011;11828;51.508;18.118;2023-07-30T12:01:57;13.80;;;2.42;;
23310;SDS011;11828;51.508;18.118;2023-07-30T12:04:23;7.63;;;1.80;;
23310;SDS011;11828;51.508;18.118;2023-07-30T12:06:51;5.72;;;1.60;;
23310;SDS011;11828;51.508;18.118;2023-07-30T12:09:19;6.32;;;1.73;;
23310;SDS011;11828;51.508;18.118;2023-07-30T12:14:25;6.30;;;1.80;;
23310;SDS011;11828;51.508;18.118;2023-07-30T12:17:08;6.13;;;1.58;;
23310;SDS011;11828;51.508;18.118;2023-07-30T12:19:35;10.52;;;1.90;;
23310;SDS011;11828;51.508;18.118;2023-07-30T12:22:01;16.23;;;2.40;;
23310;SDS011;11828;51.508;18.118;2023-07-30T12:24:28;14.73;;;2.45;;
23310;SDS011;11828;51.508;18.118;2023-07-30T12:26:54;10.27;;;2.10;;
23310;SDS011;11828;51.508;18.118;2023-07-30T12:29:20;7.05;;;1.92;;
23310;SDS011;11828;51.508;18.118;2023-07-30T12:31:47;8.70;;;1.90;;
23310;SDS011;11828;51.508;18.118;2023-07-30T12:34:13;10.20;;;2.40;;
23310;SDS011;11828;51.508;18.118;2023-07-30T12:36:40;15.48;;;2.65;;
23310;SDS011;11828;51.508;18.118;2023-07-30T12:39:06;7.30;;;1.98;;
23310;SDS011;11828;51.508;18.118;2023-07-30T12:41:33;10.75;;;2.30;;
23310;SDS011;11828;51.508;18.118;2023-07-30T12:43:59;9.63;;;2.00;;
23310;SDS011;11828;51.508;18.118;2023-07-30T12:46:25;5.88;;;1.60;;
23310;SDS011;11828;51.508;18.118;2023-07-30T12:48:55;8.88;;;2.00;;
23310;SDS011;11828;51.508;18.118;2023-07-30T12:51:22;9.95;;;2.10;;
23310;SDS011;11828;51.508;18.118;2023-07-30T12:53:48;16.73;;;2.60;;
23310;SDS011;11828;51.508;18.118;2023-07-30T12:56:14;9.85;;;2.17;;
23310;SDS011;11828;51.508;18.118;2023-07-30T12:58:41;6.55;;;1.73;;
23310;SDS011;11828;51.508;18.118;2023-07-30T13:01:07;9.00;;;1.80;;
23310;SDS011;11828;51.508;18.118;2023-07-30T13:03:33;6.57;;;1.60;;
23310;SDS011;11828;51.508;18.118;2023-07-30T13:08:46;10.68;;;2.03;;
23310;SDS011;11828;51.508;18.118;2023-07-30T13:11:12;21.30;;;3.20;;
23310;SDS011;11828;51.508;18.118;2023-07-30T13:13:39;11.15;;;2.20;;
23310;SDS011;11828;51.508;18.118;2023-07-30T13:16:05;7.63;;;1.95;;
23310;SDS011;11828;51.508;18.118;2023-07-30T13:18:31;9.40;;;2.08;;
23310;SDS011;11828;51.508;18.118;2023-07-30T13:20:57;9.10;;;2.10;;
23310;SDS011;11828;51.508;18.118;2023-07-30T13:23:24;10.15;;;2.17;;
23310;SDS011;11828;51.508;18.118;2023-07-30T13:25:50;6.18;;;2.00;;
23310;SDS011;11828;51.508;18.118;2023-07-30T13:28:17;7.18;;;1.92;;
23310;SDS011;11828;51.508;18.118;2023-07-30T13:30:43;7.03;;;2.00;;
23310;SDS011;11828;51.508;18.118;2023-07-30T13:33:09;8.52;;;1.95;;
23310;SDS011;11828;51.508;18.118;2023-07-30T13:35:35;8.05;;;2.20;;
23310;SDS011;11828;51.508;18.118;2023-07-30T13:38:01;6.45;;;2.00;;
23310;SDS011;11828;51.508;18.118;2023-07-30T13:40:27;6.00;;;1.98;;
23310;SDS011;11828;51.508;18.118;2023-07-30T13:42:54;11.18;;;2.45;;
23310;SDS011;11828;51.508;18.118;2023-07-30T13:45:20;9.00;;;2.50;;
23310;SDS011;11828;51.508;18.118;2023-07-30T13:47:46;10.10;;;2.10;;
23310;SDS011;11828;51.508;18.118;2023-07-30T13:50:12;13.18;;;2.47;;
23310;SDS011;11828;51.508;18.118;2023-07-30T13:52:38;7.90;;;2.08;;
23310;SDS011;11828;51.508;18.118;2023-07-30T13:55:04;12.25;;;2.53;;
23310;SDS011;11828;51.508;18.118;2023-07-30T13:57:31;9.25;;;2.15;;
23310;SDS011;11828;51.508;18.118;2023-07-30T13:59:57;10.00;;;2.55;;
23310;SDS011;11828;51.508;18.118;2023-07-30T14:02:23;8.45;;;2.40;;
23310;SDS011;11828;51.508;18.118;2023-07-30T14:04:49;9.48;;;2.47;;
23310;SDS011;11828;51.508;18.118;2023-07-30T14:07:15;8.70;;;2.30;;
23310;SDS011;11828;51.508;18.118;2023-07-30T14:09:41;9.32;;;2.72;;
23310;SDS011;11828;51.508;18.118;2023-07-30T14:12:08;7.90;;;2.35;;
23310;SDS011;11828;51.508;18.118;2023-07-30T14:14:34;6.93;;;2.42;;
23310;SDS011;11828;51.508;18.118;2023-07-30T14:17:01;7.00;;;2.25;;
23310;SDS011;11828;51.508;18.118;2023-07-30T14:19:32;8.65;;;2.30;;
23310;SDS011;11828;51.508;18.118;2023-07-30T14:21:59;10.38;;;2.53;;
23310;SDS011;11828;51.508;18.118;2023-07-30T14:24:25;9.80;;;2.80;;